Time;durP1;ratioP1;P1;durP2;ratioP2;P2;SDS_P1;SDS_P2;PMS_P1;PMS_P2;Temp;Humidity;BMP_temperature;BMP_pressure;BME280_temperature;BME280_humidity;BME280_pressure;Samples;Min_cycle;Max_cycle;Signal;HPM_P1;HPM_P2
2022/03/01 00:01:44;;;;;;;17.73;9.35;;;2.10;99.90;;;;;;6215893;23;20036;-94
2022/03/01 00:04:09;;;;;;;18.90;10.85;;;2.10;99.90;;;;;;6218209;23;20058;-95
2022/03/01 00:06:35;;;;;;;19.90;11.05;;;2.20;99.90;;;;;;6216493;23;20016;-95
2022/03/01 00:09:01;;;;;;;17.88;10.32;;;2.10;99.90;;;;;;6218787;23;20069;-94
2022/03/01 00:11:33;;;;;;;18.77;10.57;;;2.10;99.90;;;;;;6218554;23;20067;-95
2022/03/01 00:13:59;;;;;;;18.80;10.88;;;2.10;99.90;;;;;;6218909;23;20020;-95
2022/03/01 00:16:25;;;;;;;19.30;10.77;;;2.10;99.90;;;;;;6219014;23;20469;-95
2022/03/01 00:18:50;;;;;;;18.35;10.75;;;2.00;99.90;;;;;;6244649;23;20020;-95
2022/03/01 00:21:16;;;;;;;17.15;10.00;;;2.10;99.90;;;;;;6220351;23;20016;-95
2022/03/01 00:23:42;;;;;;;18.80;10.48;;;2.00;99.90;;;;;;6219415;23;20472;-95
2022/03/01 00:26:20;;;;;;;19.45;10.57;;;2.00;99.90;;;;;;6219136;23;20030;-95
2022/03/01 00:28:45;;;;;;;17.85;10.07;;;2.00;99.90;;;;;;6218232;23;20372;-95
2022/03/01 00:31:12;;;;;;;16.83;9.95;;;2.00;99.90;;;;;;6219424;23;20012;-94
2022/03/01 00:33:37;;;;;;;19.05;10.68;;;2.00;99.90;;;;;;6223072;23;20020;-95
2022/03/01 00:36:03;;;;;;;18.20;10.65;;;2.00;99.90;;;;;;6252108;23;20031;-96
2022/03/01 00:38:29;;;;;;;19.52;10.27;;;2.00;99.90;;;;;;6224467;23;20016;-95
2022/03/01 00:41:10;;;;;;;17.58;10.23;;;2.00;99.90;;;;;;6255302;23;20039;-96
2022/03/01 00:43:36;;;;;;;17.25;9.98;;;1.90;99.90;;;;;;6227131;23;20026;-95
2022/03/01 00:46:04;;;;;;;17.67;10.35;;;1.80;99.90;;;;;;6220956;23;20408;-95
2022/03/01 00:48:30;;;;;;;18.67;9.93;;;1.80;99.90;;;;;;6217418;23;20054;-95
2022/03/01 00:50:56;;;;;;;19.85;10.75;;;1.80;99.90;;;;;;6221447;23;20016;-96
2022/03/01 00:53:25;;;;;;;16.95;9.65;;;1.80;99.90;;;;;;6225416;23;20059;-95
2022/03/01 00:55:50;;;;;;;17.10;9.13;;;1.80;99.90;;;;;;6221732;23;20016;-96
2022/03/01 00:58:16;;;;;;;16.13;9.80;;;1.80;99.90;;;;;;6220097;23;20027;-96
2022/03/01 01:00:42;;;;;;;18.15;10.02;;;1.70;99.90;;;;;;6217863;23;20389;-96
2022/03/01 01:03:08;;;;;;;16.73;9.75;;;1.70;99.90;;;;;;6216555;23;20074;-95
2022/03/01 01:05:34;;;;;;;17.58;10.02;;;1.70;99.90;;;;;;6216125;23;20465;-94
2022/03/01 01:07:59;;;;;;;17.77;9.93;;;1.70;99.90;;;;;;6219998;23;20319;-95
2022/03/01 01:10:31;;;;;;;17.35;11.07;;;1.80;99.90;;;;;;6220514;23;20248;-94
2022/03/01 01:12:57;;;;;;;18.83;10.65;;;1.70;99.90;;;;;;6219786;23;20055;-95
2022/03/01 01:15:23;;;;;;;18.92;10.57;;;1.70;99.90;;;;;;6215496;23;20021;-95
2022/03/01 01:17:49;;;;;;;18.17;10.35;;;1.60;99.90;;;;;;6215325;23;20027;-95
2022/03/01 01:20:16;;;;;;;18.27;9.82;;;1.60;99.90;;;;;;6215530;23;20020;-94
2022/03/01 01:22:42;;;;;;;20.90;10.35;;;1.60;99.90;;;;;;6214047;23;20097;-94
2022/03/01 01:25:16;;;;;;;17.02;10.85;;;1.60;99.90;;;;;;6215526;23;20128;-94
2022/03/01 01:27:44;;;;;;;20.52;10.00;;;1.60;99.90;;;;;;6215715;23;20337;-94
2022/03/01 01:30:13;;;;;;;19.13;11.07;;;1.60;99.90;;;;;;6215338;23;20027;-96
2022/03/01 01:32:39;;;;;;;17.23;10.55;;;1.60;99.90;;;;;;6214990;23;20150;-96
2022/03/01 01:35:06;;;;;;;19.10;10.00;;;1.60;99.90;;;;;;6215090;23;20048;-95
2022/03/01 01:37:32;;;;;;;18.10;10.32;;;1.60;99.90;;;;;;6214125;23;20020;-93
2022/03/01 01:39:58;;;;;;;19.00;10.73;;;1.60;99.90;;;;;;6240574;23;20311;-95
2022/03/01 01:42:30;;;;;;;17.45;9.43;;;1.60;99.90;;;;;;6215888;23;20020;-96
2022/03/01 01:44:56;;;;;;;17.67;10.02;;;1.60;99.90;;;;;;6215509;23;20016;-96
2022/03/01 01:47:21;;;;;;;19.52;10.98;;;1.60;99.90;;;;;;6215863;23;20103;-96
2022/03/01 01:49:47;;;;;;;21.27;11.15;;;1.60;99.90;;;;;;6218667;23;20130;-96
2022/03/01 01:52:15;;;;;;;19.65;10.95;;;1.60;99.90;;;;;;6221849;23;20020;-95
2022/03/01 01:54:41;;;;;;;18.08;10.50;;;1.60;99.90;;;;;;6259749;23;20103;-95
2022/03/01 01:57:22;;;;;;;18.30;10.40;;;1.50;99.90;;;;;;6259295;23;20632;-92
2022/03/01 01:59:49;;;;;;;17.73;10.07;;;1.50;99.90;;;;;;6214790;23;20016;-93
2022/03/01 02:02:19;;;;;;;17.38;10.45;;;1.50;99.90;;;;;;6215326;23;20019;-94
2022/03/01 02:04:45;;;;;;;19.35;10.77;;;1.50;99.90;;;;;;6229424;23;20042;-93
2022/03/01 02:07:11;;;;;;;19.65;10.40;;;1.50;99.90;;;;;;6232046;23;20107;-93
2022/03/01 02:09:37;;;;;;;18.30;10.65;;;1.40;99.90;;;;;;6218958;23;20013;-93
2022/03/01 02:12:13;;;;;;;17.23;10.30;;;1.40;99.90;;;;;;6217436;23;20445;-94
2022/03/01 02:14:40;;;;;;;18.50;10.32;;;1.30;99.90;;;;;;6217023;23;20096;-93
2022/03/01 02:17:08;;;;;;;19.48;10.18;;;1.30;99.90;;;;;;6219004;23;20106;-94
2022/03/01 02:19:35;;;;;;;20.65;11.52;;;1.30;99.90;;;;;;6217509;23;20078;-94
2022/03/01 02:22:01;;;;;;;18.45;10.52;;;1.30;99.90;;;;;;6218560;23;20055;-93
2022/03/01 02:24:28;;;;;;;19.00;11.45;;;1.40;99.90;;;;;;6216871;23;20035;-93
2022/03/01 02:27:04;;;;;;;19.27;11.57;;;1.30;99.90;;;;;;6218966;23;20066;-93
2022/03/01 02:29:30;;;;;;;19.10;10.55;;;1.40;99.90;;;;;;6217398;23;20354;-93
2022/03/01 02:31:58;;;;;;;20.55;11.32;;;1.40;99.90;;;;;;6191937;23;20044;-94
2022/03/01 02:34:25;;;;;;;20.60;10.68;;;1.40;99.90;;;;;;6216159;23;20020;-94
2022/03/01 02:36:51;;;;;;;18.25;11.38;;;1.40;99.90;;;;;;6242900;23;20016;-93
2022/03/01 02:39:17;;;;;;;18.75;11.10;;;1.40;99.90;;;;;;6216930;23;20101;-93
2022/03/01 02:41:49;;;;;;;19.30;11.27;;;1.40;99.90;;;;;;6216893;23;20067;-93
2022/03/01 02:44:15;;;;;;;18.70;11.63;;;1.40;99.90;;;;;;6216357;23;20020;-93
2022/03/01 02:46:42;;;;;;;18.63;10.63;;;1.40;99.90;;;;;;6215805;23;20069;-92
2022/03/01 02:49:08;;;;;;;20.73;11.05;;;1.40;99.90;;;;;;6217208;23;20440;-93
2022/03/01 02:51:35;;;;;;;19.70;10.95;;;1.40;99.90;;;;;;6215959;23;20062;-93
2022/03/01 02:54:02;;;;;;;20.42;10.75;;;1.40;99.90;;;;;;6216179;23;20016;-93
2022/03/01 02:56:38;;;;;;;21.98;11.35;;;1.40;99.90;;;;;;6216275;23;20024;-92
2022/03/01 02:59:04;;;;;;;20.90;11.73;;;1.40;99.90;;;;;;6216690;23;20055;-93
2022/03/01 03:01:29;;;;;;;21.15;12.63;;;1.40;99.90;;;;;;6240477;23;20024;-93
2022/03/01 03:03:56;;;;;;;20.10;11.25;;;1.40;99.90;;;;;;6222517;23;20016;-94
2022/03/01 03:06:22;;;;;;;22.00;11.50;;;1.30;99.90;;;;;;6221375;23;20102;-94
2022/03/01 03:08:48;;;;;;;19.55;10.95;;;1.40;99.90;;;;;;6217308;23;20023;-93
2022/03/01 03:11:29;;;;;;;19.80;11.07;;;1.30;99.90;;;;;;6216018;23;20340;-93
2022/03/01 03:13:54;;;;;;;19.20;11.93;;;1.30;99.90;;;;;;6216396;23;20098;-94
2022/03/01 03:16:20;;;;;;;17.50;10.95;;;1.20;99.90;;;;;;6215431;23;20016;-92
2022/03/01 03:18:46;;;;;;;21.80;11.88;;;1.20;99.90;;;;;;6241096;23;20095;-92
2022/03/01 03:21:12;;;;;;;22.23;10.30;;;1.20;99.90;;;;;;6216184;23;20023;-92
2022/03/01 03:23:38;;;;;;;19.17;11.18;;;1.10;99.90;;;;;;6216734;23;20361;-93
2022/03/01 03:26:10;;;;;;;19.67;10.63;;;1.20;99.90;;;;;;6216425;23;20027;-92
2022/03/01 03:28:36;;;;;;;18.85;10.80;;;1.00;99.90;;;;;;6215762;23;20016;-92
2022/03/01 03:31:02;;;;;;;19.88;11.63;;;1.00;99.90;;;;;;6216117;23;20020;-92
2022/03/01 03:33:31;;;;;;;17.67;11.32;;;1.00;99.90;;;;;;6216056;23;20020;-92
2022/03/01 03:35:57;;;;;;;20.90;11.52;;;1.00;99.90;;;;;;6215002;23;20009;-93
2022/03/01 03:38:24;;;;;;;20.08;11.45;;;1.00;99.90;;;;;;6214382;23;20027;-93
2022/03/01 03:40:59;;;;;;;19.38;10.98;;;1.00;99.90;;;;;;6215937;23;20303;-92
2022/03/01 03:43:25;;;;;;;20.30;11.15;;;1.00;99.90;;;;;;6214897;23;20016;-93
2022/03/01 03:45:51;;;;;;;21.92;11.30;;;1.00;99.90;;;;;;6218253;23;20099;-92
2022/03/01 03:48:17;;;;;;;19.33;11.07;;;1.00;99.90;;;;;;6217782;23;20020;-92
2022/03/01 03:50:43;;;;;;;20.13;11.43;;;1.00;99.90;;;;;;6217015;23;20012;-92
2022/03/01 03:53:09;;;;;;;18.85;10.93;;;1.00;99.90;;;;;;6191444;23;20023;-93
2022/03/01 03:55:35;;;;;;;20.13;11.25;;;1.00;99.90;;;;;;6190069;23;20012;-92
2022/03/01 03:58:02;;;;;;;20.00;10.95;;;1.00;99.90;;;;;;6190630;23;20051;-92
2022/03/01 04:00:28;;;;;;;18.55;11.18;;;1.00;99.90;;;;;;6187569;23;20020;-93
2022/03/01 04:02:54;;;;;;;19.83;11.82;;;1.00;99.90;;;;;;6190400;23;20031;-92
2022/03/01 04:05:20;;;;;;;22.08;11.43;;;1.00;99.90;;;;;;6190543;23;20396;-92
2022/03/01 04:07:47;;;;;;;17.90;11.07;;;1.00;99.90;;;;;;6214627;23;20031;-92
2022/03/01 04:10:14;;;;;;;21.25;10.88;;;1.00;99.90;;;;;;6215876;23;20015;-92
2022/03/01 04:12:46;;;;;;;19.73;10.48;;;1.00;99.90;;;;;;6215881;23;20401;-92
2022/03/01 04:15:14;;;;;;;20.00;11.35;;;1.00;99.90;;;;;;6189480;23;20095;-92
2022/03/01 04:17:41;;;;;;;18.73;10.77;;;1.00;99.90;;;;;;6190056;23;20016;-92
2022/03/01 04:20:07;;;;;;;19.70;11.23;;;1.00;99.90;;;;;;6190204;23;20031;-93
2022/03/01 04:22:33;;;;;;;22.55;12.18;;;1.00;99.90;;;;;;6189370;23;20016;-92
2022/03/01 04:24:58;;;;;;;19.42;11.05;;;1.00;99.90;;;;;;6190134;23;20016;-92
2022/03/01 04:27:31;;;;;;;24.05;11.00;;;1.00;99.90;;;;;;6189320;23;20024;-93
2022/03/01 04:29:56;;;;;;;18.45;11.27;;;1.00;99.90;;;;;;6190477;23;20030;-92
2022/03/01 04:32:22;;;;;;;20.20;11.65;;;1.00;99.90;;;;;;6188551;23;20091;-92
2022/03/01 04:34:48;;;;;;;19.20;11.80;;;1.00;99.90;;;;;;6189477;23;20302;-92
2022/03/01 04:37:14;;;;;;;21.10;11.40;;;1.00;99.90;;;;;;6188652;23;20565;-92
2022/03/01 04:39:40;;;;;;;19.95;11.13;;;1.00;99.90;;;;;;6190409;23;20024;-92
2022/03/01 04:42:15;;;;;;;21.50;11.18;;;1.00;99.90;;;;;;6189539;23;20313;-92
2022/03/01 04:44:41;;;;;;;19.48;11.02;;;1.10;99.90;;;;;;6213228;23;20338;-92
2022/03/01 04:47:07;;;;;;;20.25;11.18;;;1.10;99.90;;;;;;6189890;23;20063;-91
2022/03/01 04:49:33;;;;;;;21.60;12.40;;;1.10;99.90;;;;;;6188482;23;20062;-92
2022/03/01 04:51:58;;;;;;;21.17;11.90;;;1.10;99.90;;;;;;6202575;23;20453;-93
2022/03/01 04:54:24;;;;;;;21.27;11.23;;;1.10;99.90;;;;;;6213731;23;20051;-92
2022/03/01 04:56:56;;;;;;;18.88;11.07;;;1.10;99.90;;;;;;6215108;23;20024;-92
2022/03/01 04:59:21;;;;;;;21.63;12.82;;;1.10;99.90;;;;;;6213694;23;20070;-92
2022/03/01 05:01:47;;;;;;;18.77;11.82;;;1.10;99.90;;;;;;6215860;23;20095;-91
2022/03/01 05:04:13;;;;;;;20.10;11.88;;;1.10;99.90;;;;;;6223839;23;20023;-92
2022/03/01 05:06:39;;;;;;;20.58;12.75;;;1.10;99.90;;;;;;6220169;23;20031;-93
2022/03/01 05:09:05;;;;;;;21.30;12.70;;;1.20;99.90;;;;;;6217907;23;20016;-93
2022/03/01 05:11:52;;;;;;;20.60;11.65;;;1.20;99.90;;;;;;6217381;23;20128;-93
2022/03/01 05:14:18;;;;;;;20.05;11.52;;;1.20;99.90;;;;;;6218100;23;20020;-92
2022/03/01 05:16:45;;;;;;;22.73;12.27;;;1.20;99.90;;;;;;6246335;23;20020;-91
2022/03/01 05:19:12;;;;;;;20.98;11.35;;;1.30;99.90;;;;;;6263305;23;20051;-92
2022/03/01 05:21:38;;;;;;;22.05;12.18;;;1.30;99.90;;;;;;6239356;23;20027;-93
2022/03/01 05:24:04;;;;;;;21.27;12.00;;;1.30;99.90;;;;;;6234507;23;20340;-92
2022/03/01 05:26:36;;;;;;;19.73;11.30;;;1.30;99.90;;;;;;6225935;23;20063;-91
2022/03/01 05:29:03;;;;;;;22.00;12.43;;;1.30;99.90;;;;;;6218564;23;20023;-92
2022/03/01 05:31:28;;;;;;;17.83;10.73;;;1.40;99.90;;;;;;6215964;23;20016;-92
2022/03/01 05:33:54;;;;;;;20.90;12.20;;;1.40;99.90;;;;;;6216772;23;20469;-93
2022/03/01 05:36:20;;;;;;;20.27;11.88;;;1.40;99.90;;;;;;6236651;23;20271;-92
2022/03/01 05:38:46;;;;;;;20.58;12.05;;;1.30;99.90;;;;;;6241400;23;20032;-92
2022/03/01 05:41:24;;;;;;;21.35;12.02;;;1.30;99.90;;;;;;6240773;22;20030;-92
2022/03/01 05:43:50;;;;;;;22.35;11.93;;;1.30;99.90;;;;;;6218438;23;20012;-92
2022/03/01 05:46:15;;;;;;;19.50;11.25;;;1.40;99.90;;;;;;6214601;23;20016;-91
2022/03/01 05:48:41;;;;;;;18.65;10.95;;;1.30;99.90;;;;;;6215667;23;20071;-91
2022/03/01 05:51:07;;;;;;;20.20;11.90;;;1.40;99.90;;;;;;6216789;23;20064;-92
2022/03/01 05:53:33;;;;;;;21.55;11.73;;;1.30;99.90;;;;;;6191407;23;20047;-92
2022/03/01 05:56:01;;;;;;;19.17;11.65;;;1.30;99.90;;;;;;6192448;23;20020;-92
2022/03/01 05:58:47;;;;;;;22.23;11.90;;;1.30;99.90;;;;;;6243497;23;20432;-93
2022/03/01 06:01:12;;;;;;;20.70;11.68;;;1.30;99.90;;;;;;6190693;23;20460;-92
2022/03/01 06:03:38;;;;;;;22.65;12.48;;;1.30;99.90;;;;;;6218130;23;20016;-92
2022/03/01 06:06:04;;;;;;;22.52;12.65;;;1.30;99.90;;;;;;6217235;23;20018;-92
2022/03/01 06:08:29;;;;;;;22.08;12.48;;;1.30;99.90;;;;;;6192647;23;20035;-92
2022/03/01 06:10:55;;;;;;;20.67;12.20;;;1.30;99.90;;;;;;6192977;23;20016;-92
2022/03/01 06:13:21;;;;;;;21.48;11.85;;;1.30;99.90;;;;;;6215673;23;20048;-92
2022/03/01 06:15:48;;;;;;;21.65;12.82;;;1.30;99.90;;;;;;6191138;23;20054;-92
2022/03/01 06:18:14;;;;;;;23.20;12.18;;;1.30;99.90;;;;;;6191435;23;20043;-93
2022/03/01 06:20:40;;;;;;;21.13;13.00;;;1.30;99.90;;;;;;6191635;23;20004;-92
2022/03/01 06:23:06;;;;;;;23.40;12.25;;;1.40;99.90;;;;;;6191312;23;20095;-91
2022/03/01 06:25:31;;;;;;;23.70;12.43;;;1.40;99.90;;;;;;6191955;23;20516;-93
2022/03/01 06:28:04;;;;;;;21.08;11.88;;;1.40;99.90;;;;;;6195179;23;20024;-95
2022/03/01 06:30:30;;;;;;;21.80;12.50;;;1.40;99.90;;;;;;6192098;23;20016;-92
2022/03/01 06:32:55;;;;;;;22.23;12.25;;;1.40;99.90;;;;;;6224392;23;20378;-93
2022/03/01 06:35:21;;;;;;;20.55;12.40;;;1.40;99.90;;;;;;6195014;23;20016;-90
2022/03/01 06:37:47;;;;;;;19.40;11.50;;;1.50;99.90;;;;;;6216726;23;20020;-92
2022/03/01 06:40:12;;;;;;;20.90;11.88;;;1.50;99.90;;;;;;6193508;23;20016;-94
2022/03/01 06:42:39;;;;;;;21.40;12.15;;;1.50;99.90;;;;;;6177552;23;20050;-94
2022/03/01 06:45:06;;;;;;;19.95;12.18;;;1.50;99.90;;;;;;6194025;23;20081;-92
2022/03/01 06:47:32;;;;;;;21.10;12.55;;;1.50;99.90;;;;;;6197438;23;20023;-94
2022/03/01 06:49:58;;;;;;;21.90;13.13;;;1.50;99.90;;;;;;6223059;23;20031;-94
2022/03/01 06:52:23;;;;;;;24.00;12.57;;;1.60;99.90;;;;;;6236315;23;20024;-92
2022/03/01 06:54:49;;;;;;;20.85;12.40;;;1.60;99.90;;;;;;6248441;23;20024;-95
2022/03/01 06:57:15;;;;;;;22.35;13.05;;;1.60;99.90;;;;;;6252095;23;20016;-93
2022/03/01 06:59:41;;;;;;;21.80;13.10;;;1.70;99.90;;;;;;6222309;23;20016;-94
2022/03/01 07:02:07;;;;;;;24.38;12.65;;;1.70;99.90;;;;;;6229856;23;20023;-93
2022/03/01 07:04:32;;;;;;;22.20;13.40;;;1.80;99.90;;;;;;6222193;23;20008;-94
2022/03/01 07:06:58;;;;;;;23.45;12.93;;;1.80;99.90;;;;;;6220062;23;20030;-94
2022/03/01 07:09:23;;;;;;;21.85;13.43;;;1.90;99.90;;;;;;6244263;23;20047;-93
2022/03/01 07:11:51;;;;;;;24.30;14.27;;;1.90;99.90;;;;;;6246995;23;20027;-95
2022/03/01 07:14:17;;;;;;;21.10;13.10;;;2.00;99.90;;;;;;6224374;23;20018;-92
2022/03/01 07:16:43;;;;;;;22.23;13.82;;;2.10;99.90;;;;;;6245712;23;20091;-93
2022/03/01 07:19:08;;;;;;;25.77;13.32;;;2.10;99.90;;;;;;6222197;23;20016;-93
2022/03/01 07:21:34;;;;;;;23.27;14.10;;;2.20;99.90;;;;;;6217926;23;20016;-92
2022/03/01 07:23:59;;;;;;;21.25;13.05;;;2.20;99.90;;;;;;6216652;23;20501;-92
2022/03/01 07:26:43;;;;;;;21.55;13.25;;;2.30;99.90;;;;;;6215223;23;20050;-92
2022/03/01 07:29:09;;;;;;;22.67;13.75;;;2.40;99.90;;;;;;6217210;23;20349;-92
2022/03/01 07:31:35;;;;;;;24.50;14.18;;;2.50;99.90;;;;;;6242671;23;20013;-93
2022/03/01 07:34:02;;;;;;;22.73;13.30;;;2.60;99.90;;;;;;6221001;23;20016;-91
2022/03/01 07:36:30;;;;;;;23.17;13.88;;;2.70;99.90;;;;;;6219219;23;20091;-96
2022/03/01 07:44:26;;;;;;;24.40;14.07;;;2.90;99.90;;;;;;6246672;23;20028;-94
2022/03/01 07:46:51;;;;;;;23.63;14.23;;;3.10;99.90;;;;;;6219218;23;20020;-94
2022/03/01 07:49:17;;;;;;;23.55;13.57;;;3.10;99.90;;;;;;6195042;23;20020;-92
2022/03/01 07:51:43;;;;;;;22.42;14.25;;;3.20;99.90;;;;;;6226263;23;20087;-95
2022/03/01 07:54:19;;;;;;;22.23;13.82;;;3.30;99.90;;;;;;6203548;23;20023;-95
2022/03/01 07:56:56;;;;;;;23.00;14.23;;;3.30;99.90;;;;;;6197670;23;20029;-94
2022/03/01 07:59:21;;;;;;;22.67;14.27;;;3.30;99.90;;;;;;6194578;23;20095;-93
2022/03/01 08:01:47;;;;;;;22.80;13.60;;;3.40;99.90;;;;;;6191611;23;20035;-95
2022/03/01 08:04:16;;;;;;;26.15;17.85;;;3.40;99.90;;;;;;6199713;23;20024;-96
2022/03/01 08:11:53;;;;;;;20.67;12.82;;;3.50;99.90;;;;;;6255834;22;20024;-95
2022/03/01 08:14:19;;;;;;;22.20;12.82;;;3.50;99.90;;;;;;6242983;23;20067;-96
2022/03/01 08:16:45;;;;;;;21.20;12.85;;;3.60;99.90;;;;;;6219612;23;20004;-96
2022/03/01 08:19:14;;;;;;;22.17;13.88;;;3.60;99.90;;;;;;6217706;23;20027;-96
2022/03/01 08:21:40;;;;;;;22.67;13.88;;;3.70;99.90;;;;;;6217981;23;20019;-96
2022/03/01 08:26:54;;;;;;;21.23;13.27;;;3.80;99.90;;;;;;6267730;22;20089;-96
2022/03/01 08:29:23;;;;;;;19.65;13.25;;;3.80;99.90;;;;;;6225185;22;20043;-96
2022/03/01 08:31:49;;;;;;;24.70;14.15;;;3.90;99.90;;;;;;6276434;22;20019;-96
2022/03/01 08:34:15;;;;;;;24.35;14.32;;;3.90;99.90;;;;;;6278185;22;19996;-96
2022/03/01 08:36:43;;;;;;;21.25;13.45;;;4.00;99.90;;;;;;6276913;22;20065;-95
2022/03/01 08:39:09;;;;;;;21.92;13.55;;;4.10;99.90;;;;;;6277068;22;20027;-96
2022/03/01 08:41:39;;;;;;;22.83;14.80;;;4.10;99.90;;;;;;6188160;22;20008;-96
2022/03/01 08:44:08;;;;;;;21.73;13.57;;;4.20;99.90;;;;;;6216318;23;20071;-96
2022/03/01 08:46:35;;;;;;;20.73;12.77;;;4.20;99.90;;;;;;6212209;23;20009;-96
2022/03/01 08:49:01;;;;;;;21.08;13.75;;;4.20;99.90;;;;;;6212186;23;20031;-96
2022/03/01 08:51:30;;;;;;;19.30;12.68;;;4.40;99.90;;;;;;6186616;23;20007;-96
2022/03/01 08:53:58;;;;;;;20.85;12.60;;;4.60;99.90;;;;;;6186557;23;20027;-96
2022/03/01 08:56:27;;;;;;;20.13;13.20;;;4.60;99.90;;;;;;6182891;23;20071;-96
2022/03/01 08:58:56;;;;;;;20.33;13.65;;;4.80;99.90;;;;;;6183211;23;20017;-96
2022/03/01 09:01:22;;;;;;;19.65;14.13;;;4.90;99.90;;;;;;6209980;23;20005;-96
2022/03/01 09:03:48;;;;;;;19.67;13.00;;;4.90;99.90;;;;;;6174120;23;20031;-94
2022/03/01 09:06:14;;;;;;;18.05;12.32;;;5.00;99.90;;;;;;6172165;23;20051;-95
2022/03/01 09:08:42;;;;;;;19.42;13.50;;;5.10;99.90;;;;;;6173656;23;20020;-96
2022/03/01 09:11:10;;;;;;;20.98;13.57;;;5.10;99.90;;;;;;6172102;23;20056;-95
2022/03/01 09:13:36;;;;;;;19.70;13.45;;;5.20;99.90;;;;;;6170347;23;20017;-95
2022/03/01 09:16:02;;;;;;;20.27;13.90;;;5.30;99.90;;;;;;6171809;23;20117;-95
2022/03/01 09:18:28;;;;;;;18.83;13.25;;;5.40;99.90;;;;;;6191157;23;20433;-95
2022/03/01 09:20:53;;;;;;;21.90;14.43;;;5.50;99.90;;;;;;6174952;23;20099;-95
2022/03/01 09:23:19;;;;;;;21.17;14.00;;;5.60;99.90;;;;;;6172659;23;20016;-96
2022/03/01 09:25:45;;;;;;;21.48;15.23;;;5.70;99.90;;;;;;6178372;23;20604;-96
2022/03/01 09:28:11;;;;;;;21.30;14.50;;;5.80;99.90;;;;;;6197344;23;20020;-95
2022/03/01 09:30:37;;;;;;;19.92;14.25;;;5.90;99.90;;;;;;6197238;23;20095;-96
2022/03/01 09:33:03;;;;;;;19.92;14.45;;;6.00;99.90;;;;;;6174402;23;20031;-96
2022/03/01 09:35:29;;;;;;;21.55;14.07;;;6.00;99.90;;;;;;6202014;23;20017;-96
2022/03/01 09:37:54;;;;;;;18.58;14.27;;;6.10;99.90;;;;;;6174299;23;20150;-96
2022/03/01 09:40:20;;;;;;;20.40;15.63;;;6.20;99.90;;;;;;6173553;23;20023;-95
2022/03/01 09:42:46;;;;;;;19.52;13.80;;;6.30;99.90;;;;;;6208699;23;20012;-95
2022/03/01 09:45:13;;;;;;;19.17;13.90;;;6.30;97.80;;;;;;6215454;23;20008;-96
2022/03/01 09:47:40;;;;;;;22.48;14.50;;;6.50;97.00;;;;;;6241521;23;20016;-96
2022/03/01 09:50:07;;;;;;;20.63;16.58;;;6.60;97.60;;;;;;6225771;23;20018;-96
2022/03/01 09:52:33;;;;;;;19.02;13.85;;;6.70;97.50;;;;;;6198354;23;20091;-96
2022/03/01 09:54:59;;;;;;;20.25;15.18;;;6.70;96.50;;;;;;6225598;23;20024;-96
2022/03/01 09:57:25;;;;;;;18.48;14.20;;;6.80;95.70;;;;;;6199577;23;20042;-96
2022/03/01 09:59:51;;;;;;;21.08;15.75;;;6.80;95.40;;;;;;6223942;23;20012;-96
2022/03/01 10:02:17;;;;;;;19.05;15.13;;;6.80;94.50;;;;;;6229366;23;20101;-96
2022/03/01 10:04:53;;;;;;;21.02;16.42;;;6.80;94.50;;;;;;6215000;23;20020;-96
2022/03/01 10:07:26;;;;;;;20.65;15.18;;;6.90;93.60;;;;;;6242732;23;20040;-96
2022/03/01 10:09:52;;;;;;;20.73;16.52;;;6.80;94.10;;;;;;6240610;23;20015;-96
2022/03/01 10:12:26;;;;;;;18.50;14.65;;;7.00;94.50;;;;;;6214448;23;20025;-96
2022/03/01 10:15:03;;;;;;;21.00;16.02;;;6.90;92.00;;;;;;6206570;23;20040;-96
2022/03/01 10:17:55;;;;;;;19.83;16.75;;;7.00;92.60;;;;;;6229750;23;20020;-96
2022/03/01 10:20:21;;;;;;;21.35;15.63;;;7.00;91.60;;;;;;6194690;23;20024;-95
2022/03/01 10:22:57;;;;;;;19.02;15.88;;;7.00;92.20;;;;;;6198302;23;20017;-96
2022/03/01 10:25:24;;;;;;;20.42;15.45;;;7.10;85.20;;;;;;6222837;23;20350;-95
2022/03/01 10:27:52;;;;;;;19.05;14.65;;;7.10;89.80;;;;;;6220945;23;20342;-96
2022/03/01 10:30:30;;;;;;;22.77;16.73;;;7.10;87.40;;;;;;6198824;23;20095;-96
2022/03/01 10:33:12;;;;;;;22.27;16.27;;;7.20;87.20;;;;;;6204191;23;20048;-95
2022/03/01 10:35:41;;;;;;;20.95;15.80;;;7.40;87.40;;;;;;6229426;23;20025;-96
2022/03/01 10:38:08;;;;;;;19.55;15.15;;;7.40;83.50;;;;;;6221780;23;20448;-96
2022/03/01 10:40:36;;;;;;;18.30;15.13;;;7.50;81.60;;;;;;6200173;23;20016;-96
2022/03/01 10:43:09;;;;;;;19.77;16.20;;;7.70;81.80;;;;;;6196659;23;20068;-96
2022/03/01 10:45:49;;;;;;;21.60;16.10;;;7.90;80.20;;;;;;6200838;23;20055;-96
2022/03/01 10:48:25;;;;;;;18.50;14.55;;;8.00;76.60;;;;;;6221664;23;20017;-95
2022/03/01 10:51:02;;;;;;;20.17;16.20;;;8.10;75.00;;;;;;6232525;23;20020;-96
2022/03/01 10:53:39;;;;;;;20.77;16.10;;;8.20;77.40;;;;;;6197666;23;20016;-94
2022/03/01 10:56:07;;;;;;;20.08;16.17;;;8.40;80.30;;;;;;6199968;23;20016;-96
2022/03/01 10:58:36;;;;;;;19.40;15.80;;;8.70;79.60;;;;;;6208554;23;20080;-95
2022/03/01 11:03:44;;;;;;;18.80;15.13;;;8.90;74.40;;;;;;6239455;22;20035;-96
2022/03/01 11:06:10;;;;;;;19.42;15.18;;;9.10;75.40;;;;;;6221659;23;20023;-96
2022/03/01 11:08:40;;;;;;;18.45;15.13;;;9.10;70.70;;;;;;6199266;23;20024;-95
2022/03/01 11:11:09;;;;;;;18.00;14.75;;;9.30;69.80;;;;;;6196626;23;20054;-96
2022/03/01 11:13:39;;;;;;;18.45;14.65;;;9.30;69.30;;;;;;6195275;23;20099;-94
2022/03/01 11:16:14;;;;;;;18.43;15.07;;;9.40;66.90;;;;;;6228123;23;20024;-96
2022/03/01 11:18:40;;;;;;;19.13;14.40;;;9.50;68.90;;;;;;6198874;23;20012;-96
2022/03/01 11:21:08;;;;;;;19.02;15.15;;;9.50;70.60;;;;;;6194548;23;20348;-95
2022/03/01 11:23:35;;;;;;;18.63;15.18;;;9.60;70.30;;;;;;6194444;23;20056;-95
2022/03/01 11:26:14;;;;;;;19.50;15.80;;;9.70;69.80;;;;;;6220553;23;20016;-96
2022/03/01 11:28:54;;;;;;;18.58;15.10;;;9.70;69.90;;;;;;6206539;23;20051;-95
2022/03/01 11:31:26;;;;;;;22.52;15.38;;;9.80;68.30;;;;;;6194094;23;20016;-96
2022/03/01 11:34:01;;;;;;;18.50;15.27;;;9.70;67.10;;;;;;6222172;23;20020;-96
2022/03/01 11:36:29;;;;;;;18.05;14.95;;;9.70;65.80;;;;;;6194186;23;20341;-96
2022/03/01 11:39:06;;;;;;;19.13;15.88;;;9.70;66.00;;;;;;6222416;23;20091;-96
2022/03/01 11:41:50;;;;;;;20.38;15.52;;;9.80;68.20;;;;;;6171505;23;20028;-96
2022/03/01 11:44:21;;;;;;;19.73;15.63;;;9.80;65.90;;;;;;6195896;23;20024;-95
2022/03/01 11:46:48;;;;;;;18.25;14.80;;;9.80;65.90;;;;;;6193883;23;20037;-96
2022/03/01 11:49:16;;;;;;;18.75;14.82;;;9.90;66.90;;;;;;6194873;23;20027;-95
2022/03/01 11:51:55;;;;;;;18.75;15.05;;;10.00;65.60;;;;;;6199964;23;20349;-94
2022/03/01 11:54:26;;;;;;;18.17;14.98;;;10.10;64.10;;;;;;6220744;23;20012;-94
2022/03/01 11:56:54;;;;;;;19.17;15.30;;;10.10;64.00;;;;;;6204315;23;20070;-96
2022/03/01 11:59:21;;;;;;;18.55;15.63;;;10.10;64.00;;;;;;6237819;23;20018;-96
2022/03/01 12:01:47;;;;;;;20.60;15.65;;;10.20;63.90;;;;;;6240833;23;20030;-96
2022/03/01 12:04:18;;;;;;;19.52;15.35;;;10.20;63.30;;;;;;6238699;23;20059;-96
2022/03/01 12:06:45;;;;;;;20.33;16.15;;;10.30;62.50;;;;;;6224238;23;20324;-95
2022/03/01 12:09:11;;;;;;;18.77;15.18;;;10.30;62.50;;;;;;6193552;23;20043;-90
2022/03/01 12:11:40;;;;;;;19.20;15.10;;;10.20;62.00;;;;;;6192608;23;20023;-90
2022/03/01 12:14:11;;;;;;;18.67;15.63;;;10.10;61.10;;;;;;6215489;23;20016;-91
2022/03/01 12:16:38;;;;;;;18.40;15.35;;;10.20;61.30;;;;;;6189288;23;20024;-92
2022/03/01 12:19:18;;;;;;;18.55;15.52;;;10.20;62.00;;;;;;6189429;23;20480;-91
2022/03/01 12:21:49;;;;;;;18.90;15.50;;;10.10;60.70;;;;;;6189108;23;20024;-92
2022/03/01 12:24:16;;;;;;;18.23;15.43;;;10.20;61.30;;;;;;6188896;23;20048;-91
2022/03/01 12:26:51;;;;;;;18.13;15.07;;;10.10;61.60;;;;;;6192259;23;20028;-93
2022/03/01 12:29:23;;;;;;;20.05;15.57;;;10.10;61.50;;;;;;6190712;23;20024;-94
2022/03/01 12:32:18;;;;;;;19.77;14.85;;;10.20;62.00;;;;;;6190148;23;20023;-92
2022/03/01 12:34:51;;;;;;;19.50;15.45;;;10.20;60.60;;;;;;6157627;23;20020;-94
2022/03/01 12:37:20;;;;;;;18.88;15.57;;;10.30;60.90;;;;;;6187519;23;20052;-91
2022/03/01 12:39:46;;;;;;;19.00;15.43;;;10.50;60.40;;;;;;6186089;23;20020;-91
2022/03/01 12:42:11;;;;;;;20.88;16.48;;;10.70;60.40;;;;;;6214513;23;20024;-94
2022/03/01 12:44:43;;;;;;;19.35;16.13;;;10.60;60.80;;;;;;6188984;23;20023;-94
2022/03/01 12:47:09;;;;;;;18.83;15.68;;;10.60;60.70;;;;;;6190252;23;20315;-94
2022/03/01 12:49:38;;;;;;;19.70;16.52;;;10.60;60.30;;;;;;6189489;23;20091;-95
2022/03/01 12:52:16;;;;;;;20.85;16.88;;;10.60;60.40;;;;;;6192102;23;20019;-95
2022/03/01 12:54:46;;;;;;;18.95;16.40;;;10.50;59.70;;;;;;6194508;23;20027;-94
2022/03/01 12:57:13;;;;;;;19.42;15.77;;;10.60;61.00;;;;;;6200170;23;20024;-92